createdAt,value
2018-08-23T00:00:45.245Z,21.10
2018-08-23T00:06:14.446Z,21.10
2018-08-23T00:11:47.488Z,21.00
2018-08-23T00:17:16.767Z,21.00
2018-08-23T00:22:46.097Z,20.90
2018-08-23T00:28:18.836Z,20.90
2018-08-23T00:33:49.184Z,20.80
2018-08-23T00:39:18.444Z,20.70
2018-08-23T00:44:58.522Z,20.60
2018-08-23T00:51:06.700Z,20.60
2018-08-23T00:56:35.945Z,20.60
2018-08-23T01:02:07.795Z,20.50
2018-08-23T01:07:37.103Z,20.50
2018-08-23T01:13:06.368Z,20.40
2018-08-23T01:18:35.721Z,20.40
2018-08-23T01:24:06.092Z,20.30
2018-08-23T01:29:35.432Z,20.30
2018-08-23T01:35:04.731Z,20.30
2018-08-23T01:40:35.049Z,20.30
2018-08-23T01:46:04.293Z,20.30
2018-08-23T01:51:33.697Z,20.30
2018-08-23T01:57:02.901Z,20.30
2018-08-23T02:02:32.108Z,20.30
2018-08-23T02:08:01.360Z,20.30
2018-08-23T02:13:31.510Z,20.20
2018-08-23T02:19:00.792Z,20.20
2018-08-23T02:24:33.832Z,20.20
2018-08-23T02:30:03.196Z,20.10
2018-08-23T02:35:32.457Z,20.10
2018-08-23T02:41:01.648Z,20.10
2018-08-23T02:46:33.090Z,20.10
2018-08-23T02:52:04.236Z,20.10
2018-08-23T02:57:33.468Z,20.10
2018-08-23T03:03:02.703Z,20.00
2018-08-23T03:08:43.918Z,20.00
2018-08-23T03:14:13.243Z,20.00
2018-08-23T03:20:02.620Z,19.90
2018-08-23T03:25:31.862Z,19.90
2018-08-23T03:31:02.708Z,19.80
2018-08-23T03:36:31.902Z,19.80
2018-08-23T03:42:01.163Z,19.80
2018-08-23T03:47:39.535Z,19.80
2018-08-23T03:53:08.838Z,19.80
2018-08-23T03:58:38.187Z,19.80
2018-08-23T04:04:08.174Z,19.80
2018-08-23T04:09:37.632Z,19.70
2018-08-23T04:15:28.153Z,19.70
2018-08-23T04:20:58.507Z,19.70
2018-08-23T04:26:28.851Z,19.70
2018-08-23T04:31:58.480Z,19.60
2018-08-23T04:37:29.972Z,19.60
2018-08-23T04:42:59.214Z,19.60
2018-08-23T04:48:30.685Z,19.60
2018-08-23T04:53:59.917Z,19.60
2018-08-23T04:59:29.260Z,19.70
2018-08-23T05:04:58.563Z,19.70
2018-08-23T05:10:27.827Z,19.80
2018-08-23T05:15:57.083Z,20.00
2018-08-23T05:21:26.283Z,20.10
2018-08-23T05:26:55.494Z,20.30
2018-08-23T05:32:24.725Z,20.40
2018-08-23T05:37:53.944Z,20.60
2018-08-23T05:43:23.747Z,20.70
2018-08-23T05:48:53.430Z,20.90
2018-08-23T05:54:22.760Z,21.00
2018-08-23T05:59:52.001Z,21.20
2018-08-23T06:05:21.263Z,21.50
2018-08-23T06:10:57.427Z,21.70
2018-08-23T06:16:26.753Z,21.90
2018-08-23T06:21:56.039Z,22.10
2018-08-23T06:27:26.365Z,22.40
2018-08-23T06:33:00.826Z,22.60
2018-08-23T06:38:30.688Z,22.80
2018-08-23T06:43:59.867Z,23.10
2018-08-23T06:49:33.661Z,23.40
2018-08-23T06:55:03.024Z,23.60
2018-08-23T07:00:32.809Z,23.80
2018-08-23T07:06:02.044Z,24.00
2018-08-23T07:11:31.248Z,24.30
2018-08-23T07:17:15.131Z,24.50
2018-08-23T07:22:44.609Z,24.70
2018-08-23T07:28:14.081Z,24.80
2018-08-23T07:33:45.378Z,25.00
2018-08-23T07:39:16.055Z,25.00
2018-08-23T07:44:48.407Z,25.10
2018-08-23T07:50:17.657Z,25.10
2018-08-23T07:55:46.896Z,25.20
2018-08-23T08:01:16.164Z,25.30
2018-08-23T08:06:45.487Z,25.40
2018-08-23T08:12:20.174Z,25.40
2018-08-23T08:17:49.435Z,25.60
2018-08-23T08:23:18.649Z,25.80
2018-08-23T08:28:47.933Z,26.20
2018-08-23T08:34:17.319Z,26.50
2018-08-23T08:39:46.536Z,26.70
2018-08-23T08:45:15.907Z,26.90
2018-08-23T08:50:50.903Z,26.80
2018-08-23T08:56:32.992Z,27.20
2018-08-23T09:02:02.216Z,27.30
2018-08-23T09:07:32.552Z,27.40
2018-08-23T09:13:01.731Z,27.60
2018-08-23T09:18:30.988Z,27.80
2018-08-23T09:24:24.449Z,28.10
2018-08-23T09:29:53.664Z,28.30
2018-08-23T09:35:27.463Z,28.50
2018-08-23T09:40:56.659Z,28.80
2018-08-23T09:46:25.892Z,29.00
2018-08-23T09:51:55.047Z,29.00
2018-08-23T09:57:24.831Z,29.20
2018-08-23T10:02:59.269Z,29.40
2018-08-23T10:08:33.753Z,29.60
2018-08-23T10:14:08.063Z,29.80
2018-08-23T10:19:42.517Z,30.00
2018-08-23T10:25:45.961Z,30.10
2018-08-23T10:31:15.206Z,30.10
2018-08-23T10:36:44.488Z,30.30
2018-08-23T10:42:16.764Z,30.20
2018-08-23T10:47:51.236Z,30.20
2018-08-23T10:53:20.471Z,30.50
2018-08-23T10:58:49.679Z,31.00
2018-08-23T11:04:19.059Z,31.30
2018-08-23T11:09:53.778Z,31.60
2018-08-23T11:15:22.875Z,31.60
2018-08-23T11:20:52.156Z,31.60
2018-08-23T11:26:23.008Z,31.50
2018-08-23T11:31:52.272Z,31.30
2018-08-23T11:37:21.430Z,30.90
2018-08-23T11:42:50.755Z,30.60
2018-08-23T11:48:19.927Z,30.30
2018-08-23T11:53:49.190Z,30.50
2018-08-23T11:59:18.466Z,30.50
2018-08-23T12:04:47.669Z,30.40
2018-08-23T12:10:18.908Z,30.10
2018-08-23T12:15:48.096Z,30.10
2018-08-23T12:21:17.297Z,30.40
2018-08-23T12:26:46.507Z,30.10
2018-08-23T12:32:15.844Z,29.90
2018-08-23T12:37:55.191Z,29.70
2018-08-23T12:43:29.651Z,29.70
2018-08-23T12:48:59.176Z,29.90
2018-08-23T12:54:28.409Z,30.20
2018-08-23T12:59:57.627Z,30.10
2018-08-23T13:05:26.897Z,30.40
2018-08-23T13:10:56.233Z,30.80
2018-08-23T13:16:25.429Z,31.20
2018-08-23T13:21:59.892Z,31.60
2018-08-23T13:27:31.546Z,31.50
2018-08-23T13:33:00.717Z,31.20
2018-08-23T13:38:29.930Z,30.90
2018-08-23T13:43:59.221Z,31.00
2018-08-23T13:49:28.468Z,30.80
2018-08-23T13:54:57.660Z,30.40
2018-08-23T14:00:32.180Z,30.10
2018-08-23T14:06:01.443Z,29.80
2018-08-23T14:11:30.600Z,29.60
2018-08-23T14:17:00.202Z,29.30
2018-08-23T14:22:29.396Z,29.30
2018-08-23T14:27:58.622Z,29.30
2018-08-23T14:33:32.584Z,29.70
2018-08-23T14:39:01.780Z,29.50
2018-08-23T14:44:31.031Z,29.40
2018-08-23T14:50:00.475Z,29.20
2018-08-23T14:56:35.147Z,28.90
2018-08-23T15:02:04.684Z,28.30
2018-08-23T15:07:33.882Z,27.60
2018-08-23T15:13:03.039Z,26.60
2018-08-23T15:18:32.265Z,25.90
2018-08-23T15:24:01.575Z,25.10
2018-08-23T15:29:30.775Z,24.40
2018-08-23T15:34:59.992Z,23.60
2018-08-23T15:40:29.210Z,23.00
2018-08-23T15:45:58.390Z,22.60
2018-08-23T15:51:27.601Z,22.40
2018-08-23T15:56:56.767Z,22.20
2018-08-23T16:02:26.479Z,22.20
2018-08-23T16:07:55.902Z,22.10
2018-08-23T16:13:25.212Z,22.10
2018-08-23T16:19:00.536Z,22.00
2018-08-23T16:24:29.767Z,22.00
2018-08-23T16:29:58.975Z,22.00
2018-08-23T16:35:28.176Z,22.00
2018-08-23T16:40:57.411Z,21.90
2018-08-23T16:46:26.600Z,22.00
2018-08-23T16:51:55.781Z,22.10
2018-08-23T16:57:25.035Z,22.20
2018-08-23T17:02:55.437Z,22.30
2018-08-23T17:08:25.092Z,22.40
2018-08-23T17:13:54.340Z,22.50
2018-08-23T17:19:23.626Z,22.60
2018-08-23T17:24:52.848Z,22.70
2018-08-23T17:30:22.071Z,22.70
2018-08-23T17:35:51.336Z,22.70
2018-08-23T17:41:20.569Z,22.70
2018-08-23T17:46:51.120Z,22.60
2018-08-23T17:52:20.363Z,22.70
2018-08-23T17:57:49.623Z,22.80
2018-08-23T18:03:18.955Z,22.90
2018-08-23T18:08:52.766Z,22.90
2018-08-23T18:14:22.067Z,22.90
2018-08-23T18:19:51.554Z,22.90
2018-08-23T18:25:20.856Z,22.90
2018-08-23T18:30:50.033Z,22.90
2018-08-23T18:36:19.764Z,22.80
2018-08-23T18:41:49.410Z,22.50
2018-08-23T18:47:20.367Z,22.20
2018-08-23T18:52:49.716Z,21.90
2018-08-23T18:58:19.040Z,21.70
2018-08-23T19:03:48.403Z,21.50
2018-08-23T19:09:17.757Z,21.40
2018-08-23T19:14:47.041Z,21.30
2018-08-23T19:20:16.355Z,21.30
2018-08-23T19:25:47.654Z,21.30
2018-08-23T19:31:17.001Z,21.30
2018-08-23T19:36:46.337Z,21.30
2018-08-23T19:42:15.722Z,21.30
2018-08-23T19:47:57.045Z,21.30
2018-08-23T19:53:26.316Z,21.20
2018-08-23T19:58:55.586Z,21.30
2018-08-23T20:04:24.953Z,21.20
2018-08-23T20:09:54.233Z,21.20
2018-08-23T20:15:25.393Z,21.10
2018-08-23T20:20:54.675Z,20.90
2018-08-23T20:26:24.138Z,20.80
2018-08-23T20:31:56.587Z,20.60
2018-08-23T20:37:25.779Z,20.50
2018-08-23T20:42:55.000Z,20.40
2018-08-23T20:48:24.391Z,20.30
2018-08-23T20:53:53.651Z,20.30
2018-08-23T20:59:22.955Z,20.10
2018-08-23T21:04:52.616Z,20.10
2018-08-23T21:10:22.064Z,20.00
2018-08-23T21:15:51.560Z,20.00
2018-08-23T21:21:20.972Z,19.90
2018-08-23T21:26:50.224Z,19.90
2018-08-23T21:32:20.480Z,19.90
2018-08-23T21:37:49.933Z,19.80
2018-08-23T21:43:19.198Z,19.80
2018-08-23T21:48:48.424Z,19.70
2018-08-23T21:54:17.710Z,19.70
2018-08-23T21:59:47.111Z,19.70
2018-08-23T22:05:17.471Z,19.70
2018-08-23T22:10:46.744Z,19.60
2018-08-23T22:16:16.064Z,19.60
2018-08-23T22:21:45.325Z,19.50
2018-08-23T22:27:14.827Z,19.50
2018-08-23T22:32:44.348Z,19.40
2018-08-23T22:38:13.753Z,19.40
2018-08-23T22:43:43.091Z,19.40
2018-08-23T22:49:12.481Z,19.30
2018-08-23T22:54:41.832Z,19.20
2018-08-23T23:00:11.072Z,19.20
2018-08-23T23:05:40.428Z,19.20
2018-08-23T23:11:10.599Z,19.10
2018-08-23T23:16:39.904Z,19.10
2018-08-23T23:22:09.219Z,19.10
2018-08-23T23:27:38.442Z,19.10
2018-08-23T23:33:08.080Z,19.10
2018-08-23T23:38:37.364Z,19.10
2018-08-23T23:44:06.630Z,19.10
2018-08-23T23:49:35.823Z,19.10
2018-08-23T23:55:05.149Z,19.10
